ZBAAVVNB

Guest
Details From ZBAA - Capital Intl
To VVNB - Hanoi Noibai Intl
Flight Number -
Tags Generated
Created
Modified
Stats Distance 1,261 nm / 2,335 km
Max Altitude 0 ft / 0 m
Waypoints 4
Social Downloads 0
Likes 0
Share VATSIM

Download

Looking for another format? Having issues loading an existing format? Contact us
Advertisement - Login to hide

Notes

Generated

Route

ZBAA HY R2150 VVNB

ID Type Via Altitude Latitude Longitude Leg Dist Tot Dist Heading (true) Name
O ZBAA APT - 0 ft / 0 m 40.10211˚ 116.56969˚ - 0 nm - -
HY NDB - 0 ft / 0 m 28.58333˚ 109.45000˚ 775 nm 775 nm 209° / 205° HUAYUAN NDB
R2150 FIX - 0 ft / 0 m 21.22489˚ 105.78623˚ 484 nm 1260 nm 205° / 204° -
O VVNB APT - 0 ft / 0 m 21.22489˚ 105.78623˚ 0 nm 1260 nm 0° / 180° -

Altitude Profile

Advertisement - Login to hide

Weather


0- 5 10 15 20 25 30 35+ Temperature / ° C

Clouds and Precipitation
Forecast for 2017-12-15 00:00 UTC. Updated 2 hours ago

Ground ~20,000 ft ~40,000 ft Winds

ZBAA

Details ICAO ZBAA (PEK)
Name CAPITAL INTL
Region China
Timezone Asia/Shanghai (UTC+8.0)
Stats Elevation 116 ft / 35 m (AMSL)
Location 40.080118° 116.584563°
Runways 2
Magnetic Variation 6.953° W

METAR

ZBAA 142300Z 05002MPS CAVOK M04/M11 Q1032 BECMG TL0020 32005MPS

Decode

TAF

Not found

Departure Runways

ID Width Length Bearing (true) Bearing (mag) Surface Threshold Offset Overrun Length
18L 197 ft / 60 m 12,436 ft / 3,790 m 173.12° 180.07° Asphalt 0 ft / 0 m 197 ft / 60 m
18R 164 ft / 50 m 10,506 ft / 3,202 m 174.11° 181.06° Asphalt 0 ft / 0 m 197 ft / 60 m
36L 164 ft / 50 m 10,506 ft / 3,202 m 354.11° 1.06° Asphalt 0 ft / 0 m 197 ft / 60 m
36R 197 ft / 60 m 12,436 ft / 3,790 m 353.12° 0.07° Asphalt 0 ft / 0 m 197 ft / 60 m

VVNB

Details ICAO VVNB (HAN)
Name Hanoi Noibai Intl
Region Vietnam
Timezone Asia/Ho_Chi_Minh (UTC+7.0)
Stats Elevation 39 ft / 12 m (AMSL)
Location 21.219739° 105.803774°
Runways 2
Magnetic Variation 1.479° W

METAR

VVNB 142300Z 05006KT 5000 -DZ BR FEW006 BKN027 15/14 Q1018 NOSIG

Decode

TAF

TAF VVNB 141700Z 1418/1518 04006KT 4000 -DZ BR SCT008 BKN027 TEMPO 1422/1502 2000 DZ BR SCT006 BKN025 BECMG 1503/1505 6000 NSW FEW010 BKN040

Decode

Destination Runways

ID Width Length Bearing (true) Bearing (mag) Surface Threshold Offset Overrun Length
11L 148 ft / 45 m 12,454 ft / 3,796 m 107.24° 108.72° Concrete 0 ft / 0 m 0 ft / 0 m
11R 148 ft / 45 m 12,456 ft / 3,797 m 107.22° 108.70° Concrete 0 ft / 0 m 325 ft / 99 m
29L 148 ft / 45 m 12,456 ft / 3,797 m 287.23° 288.71° Concrete 0 ft / 0 m 325 ft / 99 m
29R 148 ft / 45 m 12,454 ft / 3,796 m 287.25° 288.73° Concrete 0 ft / 0 m 868 ft / 265 m

Approach Navaids

Runway Type Ident Frequency Range Bearing (true) Bearing (mag) Slope Elevation
11L Localiser NB 110.50 MHz 18 nm / 33 km 104.05° 105.53° - 39 ft / 12 m (AMSL)
11L Glidescope NB 110.50 MHz 10 nm / 19 km 107.25° 108.73° 3.00° 39 ft / 12 m (AMSL)
11L DME NB 110.50 MHz 18 nm / 33 km - - - 39 ft / 12 m (AMSL)

Popular Alternatives